sensor_id;sensor_type;location;lat;lon;timestamp;P1;durP1;ratioP1;P2;durP2;ratioP2
47713;SDS011;33475;46.614;13.888;2024-03-08T00:00:26;4.38;;;3.38;;
47713;SDS011;33475;46.614;13.888;2024-03-08T00:02:53;5.25;;;3.25;;
47713;SDS011;33475;46.614;13.888;2024-03-08T00:05:19;3.20;;;2.90;;
47713;SDS011;33475;46.614;13.888;2024-03-08T00:07:46;3.17;;;2.88;;
47713;SDS011;33475;46.614;13.888;2024-03-08T00:10:12;3.10;;;2.80;;
47713;SDS011;33475;46.614;13.888;2024-03-08T00:12:39;3.20;;;2.85;;
47713;SDS011;33475;46.614;13.888;2024-03-08T00:15:09;2.80;;;2.60;;
47713;SDS011;33475;46.614;13.888;2024-03-08T00:17:36;3.85;;;2.70;;
47713;SDS011;33475;46.614;13.888;2024-03-08T00:20:03;3.35;;;2.70;;
47713;SDS011;33475;46.614;13.888;2024-03-08T00:22:30;2.88;;;2.58;;
47713;SDS011;33475;46.614;13.888;2024-03-08T00:24:56;2.70;;;2.50;;
47713;SDS011;33475;46.614;13.888;2024-03-08T00:27:22;2.75;;;2.53;;
47713;SDS011;33475;46.614;13.888;2024-03-08T00:29:48;3.20;;;2.90;;
47713;SDS011;33475;46.614;13.888;2024-03-08T00:32:15;3.10;;;2.80;;
47713;SDS011;33475;46.614;13.888;2024-03-08T00:34:44;3.20;;;2.90;;
47713;SDS011;33475;46.614;13.888;2024-03-08T00:37:10;2.92;;;2.72;;
47713;SDS011;33475;46.614;13.888;2024-03-08T00:39:36;5.25;;;2.80;;
47713;SDS011;33475;46.614;13.888;2024-03-08T00:42:02;3.42;;;2.90;;
47713;SDS011;33475;46.614;13.888;2024-03-08T00:44:29;3.22;;;2.92;;
47713;SDS011;33475;46.614;13.888;2024-03-08T00:46:55;2.97;;;2.72;;
47713;SDS011;33475;46.614;13.888;2024-03-08T00:49:21;3.47;;;3.15;;
47713;SDS011;33475;46.614;13.888;2024-03-08T00:51:48;3.63;;;3.33;;
47713;SDS011;33475;46.614;13.888;2024-03-08T00:54:14;3.40;;;3.05;;
47713;SDS011;33475;46.614;13.888;2024-03-08T00:56:41;4.05;;;3.65;;
47713;SDS011;33475;46.614;13.888;2024-03-08T00:59:08;3.88;;;3.47;;
47713;SDS011;33475;46.614;13.888;2024-03-08T01:01:34;3.78;;;3.33;;
47713;SDS011;33475;46.614;13.888;2024-03-08T01:04:00;3.67;;;3.38;;
47713;SDS011;33475;46.614;13.888;2024-03-08T01:06:27;3.90;;;3.45;;
47713;SDS011;33475;46.614;13.888;2024-03-08T01:08:53;3.67;;;3.38;;
47713;SDS011;33475;46.614;13.888;2024-03-08T01:11:19;5.78;;;3.63;;
47713;SDS011;33475;46.614;13.888;2024-03-08T01:13:45;3.60;;;3.30;;
47713;SDS011;33475;46.614;13.888;2024-03-08T01:16:13;4.00;;;3.60;;
47713;SDS011;33475;46.614;13.888;2024-03-08T01:18:39;3.85;;;3.45;;
47713;SDS011;33475;46.614;13.888;2024-03-08T01:21:05;3.85;;;3.45;;
47713;SDS011;33475;46.614;13.888;2024-03-08T01:23:31;4.20;;;3.45;;
47713;SDS011;33475;46.614;13.888;2024-03-08T01:25:58;4.50;;;3.83;;
47713;SDS011;33475;46.614;13.888;2024-03-08T01:28:24;3.60;;;3.30;;
47713;SDS011;33475;46.614;13.888;2024-03-08T01:30:50;4.45;;;3.67;;
47713;SDS011;33475;46.614;13.888;2024-03-08T01:33:23;4.40;;;4.00;;
47713;SDS011;33475;46.614;13.888;2024-03-08T01:35:51;6.43;;;4.80;;
47713;SDS011;33475;46.614;13.888;2024-03-08T01:38:17;5.10;;;4.00;;
47713;SDS011;33475;46.614;13.888;2024-03-08T01:40:44;6.03;;;4.10;;
47713;SDS011;33475;46.614;13.888;2024-03-08T01:43:20;4.68;;;4.07;;
47713;SDS011;33475;46.614;13.888;2024-03-08T01:45:47;7.25;;;4.22;;
47713;SDS011;33475;46.614;13.888;2024-03-08T01:48:14;5.57;;;4.57;;
47713;SDS011;33475;46.614;13.888;2024-03-08T01:50:40;5.03;;;4.00;;
47713;SDS011;33475;46.614;13.888;2024-03-08T01:53:07;5.03;;;4.13;;
47713;SDS011;33475;46.614;13.888;2024-03-08T01:55:35;5.47;;;4.32;;
47713;SDS011;33475;46.614;13.888;2024-03-08T01:58:03;5.35;;;4.47;;
47713;SDS011;33475;46.614;13.888;2024-03-08T02:00:30;4.93;;;4.32;;
47713;SDS011;33475;46.614;13.888;2024-03-08T02:02:57;6.25;;;4.25;;
47713;SDS011;33475;46.614;13.888;2024-03-08T02:05:24;6.25;;;4.47;;
47713;SDS011;33475;46.614;13.888;2024-03-08T02:07:51;5.15;;;4.68;;
47713;SDS011;33475;46.614;13.888;2024-03-08T02:10:17;5.32;;;4.45;;
47713;SDS011;33475;46.614;13.888;2024-03-08T02:12:43;4.78;;;4.28;;
47713;SDS011;33475;46.614;13.888;2024-03-08T02:15:10;6.93;;;5.43;;
47713;SDS011;33475;46.614;13.888;2024-03-08T02:17:36;6.38;;;5.20;;
47713;SDS011;33475;46.614;13.888;2024-03-08T02:20:03;5.15;;;4.65;;
47713;SDS011;33475;46.614;13.888;2024-03-08T02:22:30;5.20;;;4.63;;
47713;SDS011;33475;46.614;13.888;2024-03-08T02:24:58;4.85;;;4.13;;
47713;SDS011;33475;46.614;13.888;2024-03-08T02:27:27;5.90;;;4.60;;
47713;SDS011;33475;46.614;13.888;2024-03-08T02:29:55;5.05;;;4.55;;
47713;SDS011;33475;46.614;13.888;2024-03-08T02:32:24;5.55;;;5.03;;
47713;SDS011;33475;46.614;13.888;2024-03-08T02:34:50;5.25;;;4.75;;
47713;SDS011;33475;46.614;13.888;2024-03-08T02:37:17;6.35;;;4.82;;
47713;SDS011;33475;46.614;13.888;2024-03-08T02:39:43;6.25;;;4.90;;
47713;SDS011;33475;46.614;13.888;2024-03-08T02:42:10;5.45;;;4.85;;
47713;SDS011;33475;46.614;13.888;2024-03-08T02:44:37;6.47;;;4.70;;
47713;SDS011;33475;46.614;13.888;2024-03-08T02:47:03;6.40;;;5.18;;
47713;SDS011;33475;46.614;13.888;2024-03-08T02:49:31;7.45;;;5.13;;
47713;SDS011;33475;46.614;13.888;2024-03-08T02:51:57;8.00;;;5.53;;
47713;SDS011;33475;46.614;13.888;2024-03-08T02:54:24;5.70;;;5.00;;
47713;SDS011;33475;46.614;13.888;2024-03-08T02:56:50;5.93;;;5.13;;
47713;SDS011;33475;46.614;13.888;2024-03-08T02:59:16;7.63;;;5.75;;
47713;SDS011;33475;46.614;13.888;2024-03-08T03:01:42;4.95;;;4.38;;
47713;SDS011;33475;46.614;13.888;2024-03-08T03:04:09;6.72;;;4.63;;
47713;SDS011;33475;46.614;13.888;2024-03-08T03:06:35;6.47;;;4.95;;
47713;SDS011;33475;46.614;13.888;2024-03-08T03:09:01;5.18;;;4.68;;
47713;SDS011;33475;46.614;13.888;2024-03-08T03:11:31;5.45;;;4.55;;
47713;SDS011;33475;46.614;13.888;2024-03-08T03:13:57;5.03;;;4.25;;
47713;SDS011;33475;46.614;13.888;2024-03-08T03:16:23;5.00;;;4.22;;
47713;SDS011;33475;46.614;13.888;2024-03-08T03:18:49;4.80;;;4.40;;
47713;SDS011;33475;46.614;13.888;2024-03-08T03:21:16;5.32;;;4.82;;
47713;SDS011;33475;46.614;13.888;2024-03-08T03:23:42;5.30;;;4.80;;
47713;SDS011;33475;46.614;13.888;2024-03-08T03:26:08;5.30;;;4.80;;
47713;SDS011;33475;46.614;13.888;2024-03-08T03:28:38;5.00;;;4.50;;
47713;SDS011;33475;46.614;13.888;2024-03-08T03:31:07;7.35;;;4.78;;
47713;SDS011;33475;46.614;13.888;2024-03-08T03:33:39;5.55;;;4.60;;
47713;SDS011;33475;46.614;13.888;2024-03-08T03:36:05;6.35;;;4.93;;
47713;SDS011;33475;46.614;13.888;2024-03-08T03:38:34;5.88;;;5.18;;
47713;SDS011;33475;46.614;13.888;2024-03-08T03:41:01;6.47;;;5.63;;
47713;SDS011;33475;46.614;13.888;2024-03-08T03:43:35;6.43;;;5.30;;
47713;SDS011;33475;46.614;13.888;2024-03-08T03:46:05;5.55;;;5.05;;
47713;SDS011;33475;46.614;13.888;2024-03-08T03:48:32;8.35;;;5.85;;
47713;SDS011;33475;46.614;13.888;2024-03-08T03:50:58;6.35;;;5.43;;
47713;SDS011;33475;46.614;13.888;2024-03-08T03:53:24;7.05;;;6.35;;
47713;SDS011;33475;46.614;13.888;2024-03-08T03:55:51;7.28;;;6.57;;
47713;SDS011;33475;46.614;13.888;2024-03-08T03:58:17;6.95;;;5.93;;
47713;SDS011;33475;46.614;13.888;2024-03-08T04:00:48;5.88;;;5.28;;
47713;SDS011;33475;46.614;13.888;2024-03-08T04:03:14;8.05;;;6.18;;
47713;SDS011;33475;46.614;13.888;2024-03-08T04:05:42;6.18;;;5.55;;
47713;SDS011;33475;46.614;13.888;2024-03-08T04:08:08;6.03;;;5.43;;
47713;SDS011;33475;46.614;13.888;2024-03-08T04:10:34;8.73;;;6.35;;
47713;SDS011;33475;46.614;13.888;2024-03-08T04:13:00;5.68;;;4.90;;
47713;SDS011;33475;46.614;13.888;2024-03-08T04:15:27;7.25;;;5.65;;
47713;SDS011;33475;46.614;13.888;2024-03-08T04:17:53;6.20;;;5.60;;
47713;SDS011;33475;46.614;13.888;2024-03-08T04:20:20;6.60;;;5.20;;
47713;SDS011;33475;46.614;13.888;2024-03-08T04:22:46;7.22;;;6.53;;
47713;SDS011;33475;46.614;13.888;2024-03-08T04:25:14;7.10;;;6.10;;
47713;SDS011;33475;46.614;13.888;2024-03-08T04:27:41;7.13;;;6.18;;
47713;SDS011;33475;46.614;13.888;2024-03-08T04:30:07;5.82;;;5.20;;
47713;SDS011;33475;46.614;13.888;2024-03-08T04:32:34;7.95;;;5.40;;
47713;SDS011;33475;46.614;13.888;2024-03-08T04:35:00;6.28;;;5.25;;
47713;SDS011;33475;46.614;13.888;2024-03-08T04:37:27;7.65;;;6.20;;
47713;SDS011;33475;46.614;13.888;2024-03-08T04:39:55;6.07;;;5.47;;
47713;SDS011;33475;46.614;13.888;2024-03-08T04:42:21;5.95;;;5.43;;
47713;SDS011;33475;46.614;13.888;2024-03-08T04:44:48;5.85;;;5.35;;
47713;SDS011;33475;46.614;13.888;2024-03-08T04:47:14;9.60;;;5.68;;
47713;SDS011;33475;46.614;13.888;2024-03-08T04:49:41;5.65;;;5.05;;
47713;SDS011;33475;46.614;13.888;2024-03-08T04:52:07;9.10;;;5.35;;
47713;SDS011;33475;46.614;13.888;2024-03-08T04:54:33;5.80;;;5.05;;
47713;SDS011;33475;46.614;13.888;2024-03-08T04:57:00;7.43;;;5.70;;
47713;SDS011;33475;46.614;13.888;2024-03-08T04:59:26;6.00;;;5.40;;
47713;SDS011;33475;46.614;13.888;2024-03-08T05:01:53;6.15;;;5.55;;
47713;SDS011;33475;46.614;13.888;2024-03-08T05:04:19;6.80;;;5.38;;
47713;SDS011;33475;46.614;13.888;2024-03-08T05:06:46;5.72;;;5.15;;
47713;SDS011;33475;46.614;13.888;2024-03-08T05:09:12;6.53;;;5.82;;
47713;SDS011;33475;46.614;13.888;2024-03-08T05:11:44;8.10;;;5.30;;
47713;SDS011;33475;46.614;13.888;2024-03-08T05:14:13;9.27;;;5.60;;
47713;SDS011;33475;46.614;13.888;2024-03-08T05:16:42;7.22;;;6.07;;
47713;SDS011;33475;46.614;13.888;2024-03-08T05:19:09;11.15;;;6.63;;
47713;SDS011;33475;46.614;13.888;2024-03-08T05:21:35;8.13;;;7.32;;
47713;SDS011;33475;46.614;13.888;2024-03-08T05:24:01;8.50;;;7.47;;
47713;SDS011;33475;46.614;13.888;2024-03-08T05:26:27;9.25;;;8.07;;
47713;SDS011;33475;46.614;13.888;2024-03-08T05:28:55;6.88;;;6.18;;
47713;SDS011;33475;46.614;13.888;2024-03-08T05:31:21;7.80;;;6.85;;
47713;SDS011;33475;46.614;13.888;2024-03-08T05:33:48;7.00;;;6.13;;
47713;SDS011;33475;46.614;13.888;2024-03-08T05:36:14;7.60;;;5.45;;
47713;SDS011;33475;46.614;13.888;2024-03-08T05:38:42;7.13;;;5.80;;
47713;SDS011;33475;46.614;13.888;2024-03-08T05:41:09;6.25;;;5.40;;
47713;SDS011;33475;46.614;13.888;2024-03-08T05:43:37;7.65;;;5.95;;
47713;SDS011;33475;46.614;13.888;2024-03-08T05:46:04;9.10;;;6.80;;
47713;SDS011;33475;46.614;13.888;2024-03-08T05:48:30;6.43;;;5.63;;
47713;SDS011;33475;46.614;13.888;2024-03-08T05:51:00;7.95;;;5.93;;
47713;SDS011;33475;46.614;13.888;2024-03-08T05:53:27;7.63;;;5.88;;
47713;SDS011;33475;46.614;13.888;2024-03-08T05:55:57;6.38;;;5.57;;
47713;SDS011;33475;46.614;13.888;2024-03-08T05:58:24;6.93;;;5.40;;
47713;SDS011;33475;46.614;13.888;2024-03-08T06:00:50;5.80;;;5.20;;
47713;SDS011;33475;46.614;13.888;2024-03-08T06:03:16;6.10;;;5.50;;
47713;SDS011;33475;46.614;13.888;2024-03-08T06:05:46;6.80;;;5.55;;
47713;SDS011;33475;46.614;13.888;2024-03-08T06:08:12;6.95;;;5.47;;
47713;SDS011;33475;46.614;13.888;2024-03-08T06:10:40;7.22;;;5.50;;
47713;SDS011;33475;46.614;13.888;2024-03-08T06:13:06;6.32;;;5.40;;
47713;SDS011;33475;46.614;13.888;2024-03-08T06:15:32;7.50;;;4.85;;
47713;SDS011;33475;46.614;13.888;2024-03-08T06:17:59;6.03;;;5.25;;
47713;SDS011;33475;46.614;13.888;2024-03-08T06:20:26;6.43;;;5.82;;
47713;SDS011;33475;46.614;13.888;2024-03-08T06:22:52;6.80;;;4.90;;
47713;SDS011;33475;46.614;13.888;2024-03-08T06:25:19;7.28;;;5.43;;
47713;SDS011;33475;46.614;13.888;2024-03-08T06:27:46;5.82;;;5.22;;
47713;SDS011;33475;46.614;13.888;2024-03-08T06:30:12;7.80;;;5.38;;
47713;SDS011;33475;46.614;13.888;2024-03-08T06:32:41;6.75;;;5.50;;
47713;SDS011;33475;46.614;13.888;2024-03-08T06:35:08;6.50;;;5.03;;
47713;SDS011;33475;46.614;13.888;2024-03-08T06:37:35;5.28;;;4.78;;
47713;SDS011;33475;46.614;13.888;2024-03-08T06:40:02;4.97;;;4.22;;
47713;SDS011;33475;46.614;13.888;2024-03-08T06:42:29;5.25;;;4.75;;
47713;SDS011;33475;46.614;13.888;2024-03-08T06:45:00;5.60;;;4.53;;
47713;SDS011;33475;46.614;13.888;2024-03-08T06:47:30;4.93;;;4.28;;
47713;SDS011;33475;46.614;13.888;2024-03-08T06:49:59;7.85;;;5.10;;
47713;SDS011;33475;46.614;13.888;2024-03-08T06:52:26;14.05;;;5.30;;
47713;SDS011;33475;46.614;13.888;2024-03-08T06:54:52;4.35;;;3.95;;
47713;SDS011;33475;46.614;13.888;2024-03-08T06:57:18;5.68;;;5.00;;
47713;SDS011;33475;46.614;13.888;2024-03-08T06:59:48;9.18;;;4.15;;
47713;SDS011;33475;46.614;13.888;2024-03-08T07:02:14;9.57;;;5.47;;
47713;SDS011;33475;46.614;13.888;2024-03-08T07:04:41;5.78;;;5.18;;
47713;SDS011;33475;46.614;13.888;2024-03-08T07:07:07;6.10;;;5.18;;
47713;SDS011;33475;46.614;13.888;2024-03-08T07:09:36;6.20;;;5.60;;
47713;SDS011;33475;46.614;13.888;2024-03-08T07:12:03;6.20;;;5.57;;
47713;SDS011;33475;46.614;13.888;2024-03-08T07:14:29;6.07;;;4.72;;
47713;SDS011;33475;46.614;13.888;2024-03-08T07:16:56;5.40;;;4.85;;
47713;SDS011;33475;46.614;13.888;2024-03-08T07:19:22;5.22;;;4.68;;
47713;SDS011;33475;46.614;13.888;2024-03-08T07:21:49;5.25;;;4.75;;
47713;SDS011;33475;46.614;13.888;2024-03-08T07:24:15;5.72;;;4.85;;
47713;SDS011;33475;46.614;13.888;2024-03-08T07:26:41;7.78;;;6.53;;
47713;SDS011;33475;46.614;13.888;2024-03-08T07:29:07;6.25;;;5.22;;
47713;SDS011;33475;46.614;13.888;2024-03-08T07:31:34;6.30;;;5.25;;
47713;SDS011;33475;46.614;13.888;2024-03-08T07:34:20;5.93;;;5.43;;
47713;SDS011;33475;46.614;13.888;2024-03-08T07:36:46;7.03;;;6.40;;
47713;SDS011;33475;46.614;13.888;2024-03-08T07:39:15;8.23;;;6.22;;
47713;SDS011;33475;46.614;13.888;2024-03-08T07:41:41;6.95;;;6.07;;
47713;SDS011;33475;46.614;13.888;2024-03-08T07:44:07;7.40;;;6.45;;
47713;SDS011;33475;46.614;13.888;2024-03-08T07:46:34;10.70;;;6.53;;
47713;SDS011;33475;46.614;13.888;2024-03-08T07:49:01;7.10;;;5.82;;
47713;SDS011;33475;46.614;13.888;2024-03-08T07:51:28;7.47;;;6.35;;
47713;SDS011;33475;46.614;13.888;2024-03-08T07:53:55;7.43;;;6.10;;
47713;SDS011;33475;46.614;13.888;2024-03-08T07:56:22;10.82;;;7.07;;
47713;SDS011;33475;46.614;13.888;2024-03-08T07:58:49;5.85;;;5.28;;
47713;SDS011;33475;46.614;13.888;2024-03-08T08:01:18;6.72;;;6.13;;
47713;SDS011;33475;46.614;13.888;2024-03-08T08:03:44;7.53;;;5.53;;
47713;SDS011;33475;46.614;13.888;2024-03-08T08:06:11;6.30;;;5.70;;
47713;SDS011;33475;46.614;13.888;2024-03-08T08:08:44;6.45;;;5.85;;
47713;SDS011;33475;46.614;13.888;2024-03-08T08:11:10;5.30;;;4.80;;
47713;SDS011;33475;46.614;13.888;2024-03-08T08:13:37;6.03;;;5.22;;
47713;SDS011;33475;46.614;13.888;2024-03-08T08:16:04;6.00;;;5.40;;
47713;SDS011;33475;46.614;13.888;2024-03-08T08:18:34;5.25;;;4.75;;
47713;SDS011;33475;46.614;13.888;2024-03-08T08:21:01;7.10;;;6.20;;
47713;SDS011;33475;46.614;13.888;2024-03-08T08:23:28;6.00;;;5.50;;
47713;SDS011;33475;46.614;13.888;2024-03-08T08:25:57;5.85;;;5.07;;
47713;SDS011;33475;46.614;13.888;2024-03-08T08:28:23;5.78;;;4.82;;
47713;SDS011;33475;46.614;13.888;2024-03-08T08:30:49;5.75;;;5.25;;
47713;SDS011;33475;46.614;13.888;2024-03-08T08:33:16;8.40;;;7.43;;
47713;SDS011;33475;46.614;13.888;2024-03-08T08:35:42;6.70;;;6.00;;
47713;SDS011;33475;46.614;13.888;2024-03-08T08:38:08;5.28;;;4.75;;
47713;SDS011;33475;46.614;13.888;2024-03-08T08:40:34;6.60;;;6.00;;
47713;SDS011;33475;46.614;13.888;2024-03-08T08:43:02;5.30;;;4.80;;
47713;SDS011;33475;46.614;13.888;2024-03-08T08:45:32;6.18;;;4.82;;
47713;SDS011;33475;46.614;13.888;2024-03-08T08:47:58;4.97;;;4.43;;
47713;SDS011;33475;46.614;13.888;2024-03-08T08:50:25;6.05;;;4.65;;
47713;SDS011;33475;46.614;13.888;2024-03-08T08:52:54;6.82;;;6.15;;
47713;SDS011;33475;46.614;13.888;2024-03-08T08:55:21;7.18;;;6.43;;
47713;SDS011;33475;46.614;13.888;2024-03-08T08:57:50;5.82;;;5.32;;
47713;SDS011;33475;46.614;13.888;2024-03-08T09:00:17;7.65;;;5.80;;
47713;SDS011;33475;46.614;13.888;2024-03-08T09:02:45;7.18;;;6.47;;
47713;SDS011;33475;46.614;13.888;2024-03-08T09:05:12;7.95;;;5.25;;
47713;SDS011;33475;46.614;13.888;2024-03-08T09:07:42;5.95;;;4.30;;
47713;SDS011;33475;46.614;13.888;2024-03-08T09:10:09;8.85;;;6.32;;
47713;SDS011;33475;46.614;13.888;2024-03-08T09:12:37;7.05;;;4.40;;
47713;SDS011;33475;46.614;13.888;2024-03-08T09:15:05;4.55;;;4.15;;
47713;SDS011;33475;46.614;13.888;2024-03-08T09:17:33;6.43;;;5.82;;
47713;SDS011;33475;46.614;13.888;2024-03-08T09:19:59;4.97;;;4.38;;
47713;SDS011;33475;46.614;13.888;2024-03-08T09:22:28;5.18;;;4.68;;
47713;SDS011;33475;46.614;13.888;2024-03-08T09:24:55;5.50;;;4.90;;
47713;SDS011;33475;46.614;13.888;2024-03-08T09:27:22;6.38;;;4.50;;
47713;SDS011;33475;46.614;13.888;2024-03-08T09:29:49;5.90;;;4.53;;
47713;SDS011;33475;46.614;13.888;2024-03-08T09:32:16;3.97;;;3.38;;
47713;SDS011;33475;46.614;13.888;2024-03-08T09:34:42;6.75;;;4.25;;
47713;SDS011;33475;46.614;13.888;2024-03-08T09:37:08;6.28;;;5.30;;
47713;SDS011;33475;46.614;13.888;2024-03-08T09:39:35;4.90;;;4.40;;
47713;SDS011;33475;46.614;13.888;2024-03-08T09:42:01;7.20;;;5.30;;
47713;SDS011;33475;46.614;13.888;2024-03-08T09:44:27;6.85;;;3.85;;
47713;SDS011;33475;46.614;13.888;2024-03-08T09:46:54;5.82;;;4.35;;
47713;SDS011;33475;46.614;13.888;2024-03-08T09:49:21;8.27;;;5.80;;
47713;SDS011;33475;46.614;13.888;2024-03-08T09:51:47;8.13;;;7.32;;
47713;SDS011;33475;46.614;13.888;2024-03-08T09:54:13;5.93;;;5.43;;
47713;SDS011;33475;46.614;13.888;2024-03-08T09:56:41;4.47;;;4.07;;
47713;SDS011;33475;46.614;13.888;2024-03-08T09:59:12;5.90;;;4.95;;
47713;SDS011;33475;46.614;13.888;2024-03-08T10:01:47;5.93;;;4.60;;
47713;SDS011;33475;46.614;13.888;2024-03-08T10:04:14;6.25;;;5.63;;
47713;SDS011;33475;46.614;13.888;2024-03-08T10:06:41;10.65;;;7.80;;
47713;SDS011;33475;46.614;13.888;2024-03-08T10:09:08;8.30;;;6.00;;
47713;SDS011;33475;46.614;13.888;2024-03-08T10:11:35;8.23;;;5.93;;
47713;SDS011;33475;46.614;13.888;2024-03-08T10:14:01;5.65;;;5.15;;
47713;SDS011;33475;46.614;13.888;2024-03-08T10:16:28;9.23;;;4.97;;
47713;SDS011;33475;46.614;13.888;2024-03-08T10:18:55;6.78;;;5.78;;
47713;SDS011;33475;46.614;13.888;2024-03-08T10:21:22;5.53;;;4.10;;
47713;SDS011;33475;46.614;13.888;2024-03-08T10:23:48;6.30;;;5.50;;
47713;SDS011;33475;46.614;13.888;2024-03-08T10:26:15;5.45;;;4.82;;
47713;SDS011;33475;46.614;13.888;2024-03-08T10:28:50;4.45;;;4.05;;
47713;SDS011;33475;46.614;13.888;2024-03-08T10:31:17;5.13;;;4.63;;
47713;SDS011;33475;46.614;13.888;2024-03-08T10:33:44;6.55;;;5.88;;
47713;SDS011;33475;46.614;13.888;2024-03-08T10:36:11;8.65;;;5.07;;
47713;SDS011;33475;46.614;13.888;2024-03-08T10:38:38;6.75;;;3.83;;
47713;SDS011;33475;46.614;13.888;2024-03-08T10:41:12;6.28;;;3.92;;
47713;SDS011;33475;46.614;13.888;2024-03-08T10:48:58;6.10;;;5.57;;
47713;SDS011;33475;46.614;13.888;2024-03-08T10:51:28;6.43;;;5.60;;
47713;SDS011;33475;46.614;13.888;2024-03-08T10:53:57;11.90;;;4.57;;
47713;SDS011;33475;46.614;13.888;2024-03-08T10:56:24;6.03;;;5.00;;
47713;SDS011;33475;46.614;13.888;2024-03-08T10:58:53;5.68;;;5.10;;
47713;SDS011;33475;46.614;13.888;2024-03-08T11:01:20;5.10;;;4.60;;
47713;SDS011;33475;46.614;13.888;2024-03-08T11:03:47;9.70;;;5.80;;
47713;SDS011;33475;46.614;13.888;2024-03-08T11:08:48;5.15;;;4.07;;
47713;SDS011;33475;46.614;13.888;2024-03-08T11:11:38;5.25;;;4.75;;
47713;SDS011;33475;46.614;13.888;2024-03-08T11:14:05;5.85;;;5.20;;
47713;SDS011;33475;46.614;13.888;2024-03-08T11:16:51;7.10;;;6.22;;
47713;SDS011;33475;46.614;13.888;2024-03-08T11:21:44;5.28;;;4.75;;
47713;SDS011;33475;46.614;13.888;2024-03-08T11:24:11;6.13;;;5.53;;
47713;SDS011;33475;46.614;13.888;2024-03-08T11:26:38;7.47;;;6.03;;
47713;SDS011;33475;46.614;13.888;2024-03-08T11:31:50;5.75;;;4.72;;
47713;SDS011;33475;46.614;13.888;2024-03-08T11:34:16;8.82;;;7.93;;
47713;SDS011;33475;46.614;13.888;2024-03-08T11:36:44;7.68;;;4.72;;
47713;SDS011;33475;46.614;13.888;2024-03-08T11:39:13;5.20;;;4.63;;
47713;SDS011;33475;46.614;13.888;2024-03-08T11:41:40;4.63;;;3.90;;
47713;SDS011;33475;46.614;13.888;2024-03-08T11:44:10;5.13;;;4.30;;
47713;SDS011;33475;46.614;13.888;2024-03-08T11:46:41;4.35;;;3.95;;
47713;SDS011;33475;46.614;13.888;2024-03-08T11:49:12;4.43;;;3.85;;
47713;SDS011;33475;46.614;13.888;2024-03-08T11:51:38;3.97;;;3.53;;
47713;SDS011;33475;46.614;13.888;2024-03-08T11:54:04;4.72;;;3.95;;
47713;SDS011;33475;46.614;13.888;2024-03-08T11:56:31;5.50;;;3.85;;
47713;SDS011;33475;46.614;13.888;2024-03-08T11:58:59;8.40;;;3.75;;
47713;SDS011;33475;46.614;13.888;2024-03-08T12:01:26;4.22;;;3.80;;
47713;SDS011;33475;46.614;13.888;2024-03-08T12:03:53;3.90;;;3.50;;
47713;SDS011;33475;46.614;13.888;2024-03-08T12:06:20;4.28;;;3.88;;
47713;SDS011;33475;46.614;13.888;2024-03-08T12:08:47;4.38;;;3.92;;
47713;SDS011;33475;46.614;13.888;2024-03-08T12:11:14;5.00;;;4.28;;
47713;SDS011;33475;46.614;13.888;2024-03-08T12:13:41;4.20;;;3.80;;
47713;SDS011;33475;46.614;13.888;2024-03-08T12:16:07;4.18;;;3.75;;
47713;SDS011;33475;46.614;13.888;2024-03-08T12:18:36;4.38;;;3.92;;
47713;SDS011;33475;46.614;13.888;2024-03-08T12:21:09;4.40;;;4.00;;
47713;SDS011;33475;46.614;13.888;2024-03-08T12:23:37;4.45;;;4.03;;
47713;SDS011;33475;46.614;13.888;2024-03-08T12:26:11;4.18;;;3.78;;
47713;SDS011;33475;46.614;13.888;2024-03-08T12:28:39;4.18;;;3.78;;
47713;SDS011;33475;46.614;13.888;2024-03-08T12:31:09;4.35;;;3.95;;
47713;SDS011;33475;46.614;13.888;2024-03-08T12:33:50;3.97;;;3.55;;
47713;SDS011;33475;46.614;13.888;2024-03-08T12:36:17;4.10;;;3.70;;
47713;SDS011;33475;46.614;13.888;2024-03-08T12:38:44;4.00;;;3.60;;
47713;SDS011;33475;46.614;13.888;2024-03-08T12:41:17;4.45;;;3.97;;
47713;SDS011;33475;46.614;13.888;2024-03-08T12:43:44;5.35;;;3.55;;
47713;SDS011;33475;46.614;13.888;2024-03-08T12:46:19;3.58;;;3.28;;
47713;SDS011;33475;46.614;13.888;2024-03-08T12:48:46;5.75;;;3.85;;
47713;SDS011;33475;46.614;13.888;2024-03-08T12:51:16;3.60;;;3.28;;
47713;SDS011;33475;46.614;13.888;2024-03-08T12:53:44;3.95;;;3.55;;
47713;SDS011;33475;46.614;13.888;2024-03-08T12:56:15;4.20;;;3.80;;
47713;SDS011;33475;46.614;13.888;2024-03-08T12:58:45;5.50;;;3.40;;
47713;SDS011;33475;46.614;13.888;2024-03-08T13:01:12;3.67;;;3.38;;
47713;SDS011;33475;46.614;13.888;2024-03-08T13:03:38;4.35;;;3.95;;
47713;SDS011;33475;46.614;13.888;2024-03-08T13:06:05;4.90;;;4.20;;
47713;SDS011;33475;46.614;13.888;2024-03-08T13:08:38;3.70;;;3.38;;
47713;SDS011;33475;46.614;13.888;2024-03-08T13:11:04;6.15;;;3.65;;
47713;SDS011;33475;46.614;13.888;2024-03-08T13:13:32;5.32;;;4.45;;
47713;SDS011;33475;46.614;13.888;2024-03-08T13:16:05;4.47;;;4.07;;
47713;SDS011;33475;46.614;13.888;2024-03-08T13:18:34;4.57;;;4.18;;
47713;SDS011;33475;46.614;13.888;2024-03-08T13:21:00;6.05;;;4.13;;
47713;SDS011;33475;46.614;13.888;2024-03-08T13:23:31;4.40;;;3.85;;
47713;SDS011;33475;46.614;13.888;2024-03-08T13:25:57;4.03;;;3.42;;
47713;SDS011;33475;46.614;13.888;2024-03-08T13:28:23;3.95;;;3.63;;
47713;SDS011;33475;46.614;13.888;2024-03-08T13:30:55;5.57;;;4.53;;
47713;SDS011;33475;46.614;13.888;2024-03-08T13:33:23;8.32;;;4.47;;
47713;SDS011;33475;46.614;13.888;2024-03-08T13:35:49;5.32;;;4.63;;
47713;SDS011;33475;46.614;13.888;2024-03-08T13:38:16;5.30;;;4.80;;
47713;SDS011;33475;46.614;13.888;2024-03-08T13:40:45;9.93;;;5.07;;
47713;SDS011;33475;46.614;13.888;2024-03-08T13:43:14;5.20;;;4.70;;
47713;SDS011;33475;46.614;13.888;2024-03-08T13:45:40;4.55;;;4.10;;
47713;SDS011;33475;46.614;13.888;2024-03-08T13:48:06;4.47;;;3.83;;
47713;SDS011;33475;46.614;13.888;2024-03-08T13:50:37;3.90;;;3.50;;
47713;SDS011;33475;46.614;13.888;2024-03-08T13:53:05;3.50;;;3.20;;
47713;SDS011;33475;46.614;13.888;2024-03-08T13:55:31;3.50;;;3.20;;
47713;SDS011;33475;46.614;13.888;2024-03-08T13:57:59;3.70;;;3.38;;
47713;SDS011;33475;46.614;13.888;2024-03-08T14:00:25;5.03;;;3.15;;
47713;SDS011;33475;46.614;13.888;2024-03-08T14:02:58;3.28;;;2.83;;
47713;SDS011;33475;46.614;13.888;2024-03-08T14:05:24;4.05;;;3.38;;
47713;SDS011;33475;46.614;13.888;2024-03-08T14:07:51;3.53;;;3.22;;
47713;SDS011;33475;46.614;13.888;2024-03-08T14:10:19;3.78;;;3.47;;
47713;SDS011;33475;46.614;13.888;2024-03-08T14:12:47;3.50;;;3.20;;
47713;SDS011;33475;46.614;13.888;2024-03-08T14:15:15;3.30;;;3.00;;
47713;SDS011;33475;46.614;13.888;2024-03-08T14:17:42;4.15;;;3.38;;
47713;SDS011;33475;46.614;13.888;2024-03-08T14:20:11;3.50;;;3.20;;
47713;SDS011;33475;46.614;13.888;2024-03-08T14:22:38;3.47;;;3.17;;
47713;SDS011;33475;46.614;13.888;2024-03-08T14:25:04;3.45;;;2.92;;
47713;SDS011;33475;46.614;13.888;2024-03-08T14:27:30;4.55;;;4.15;;
47713;SDS011;33475;46.614;13.888;2024-03-08T14:29:58;3.63;;;3.33;;
47713;SDS011;33475;46.614;13.888;2024-03-08T14:32:25;3.58;;;3.05;;
47713;SDS011;33475;46.614;13.888;2024-03-08T14:34:51;4.07;;;3.35;;
47713;SDS011;33475;46.614;13.888;2024-03-08T14:37:17;3.53;;;3.22;;
47713;SDS011;33475;46.614;13.888;2024-03-08T14:39:48;3.75;;;3.40;;
47713;SDS011;33475;46.614;13.888;2024-03-08T14:42:17;3.80;;;3.50;;
47713;SDS011;33475;46.614;13.888;2024-03-08T14:44:44;4.10;;;3.58;;
47713;SDS011;33475;46.614;13.888;2024-03-08T14:47:13;5.15;;;3.65;;